sensor_id;sensor_type;location;lat;lon;timestamp;pressure;altitude;pressure_sealevel;temperature;humidity
62926;BME280;55732;52.248;-0.844;2023-02-28T00:00:45;102523.80;;;4.98;85.38
62926;BME280;55732;52.248;-0.844;2023-02-28T00:03:10;102518.91;;;4.95;85.41
62926;BME280;55732;52.248;-0.844;2023-02-28T00:05:36;102529.04;;;4.95;85.45
62926;BME280;55732;52.248;-0.844;2023-02-28T00:08:01;102533.02;;;4.91;85.38
62926;BME280;55732;52.248;-0.844;2023-02-28T00:10:29;102527.83;;;4.89;85.64
62926;BME280;55732;52.248;-0.844;2023-02-28T00:12:59;102529.41;;;4.89;85.67
62926;BME280;55732;52.248;-0.844;2023-02-28T00:15:25;102530.41;;;4.88;85.88
62926;BME280;55732;52.248;-0.844;2023-02-28T00:17:51;102533.91;;;4.88;85.82
62926;BME280;55732;52.248;-0.844;2023-02-28T00:20:17;102529.83;;;4.90;85.98
62926;BME280;55732;52.248;-0.844;2023-02-28T00:22:45;102528.17;;;4.92;85.84
62926;BME280;55732;52.248;-0.844;2023-02-28T00:25:13;102529.40;;;4.95;85.83
62926;BME280;55732;52.248;-0.844;2023-02-28T00:27:39;102533.27;;;4.95;85.74
62926;BME280;55732;52.248;-0.844;2023-02-28T00:30:06;102533.40;;;4.94;85.67
62926;BME280;55732;52.248;-0.844;2023-02-28T00:32:33;102531.77;;;4.94;85.67
62926;BME280;55732;52.248;-0.844;2023-02-28T00:34:59;102530.19;;;4.93;85.58
62926;BME280;55732;52.248;-0.844;2023-02-28T00:37:25;102533.45;;;4.92;85.53
62926;BME280;55732;52.248;-0.844;2023-02-28T00:39:51;102533.77;;;4.88;85.60
62926;BME280;55732;52.248;-0.844;2023-02-28T00:42:17;102535.84;;;4.85;85.70
62926;BME280;55732;52.248;-0.844;2023-02-28T00:44:42;102535.10;;;4.84;85.66
62926;BME280;55732;52.248;-0.844;2023-02-28T00:47:08;102534.66;;;4.82;85.70
62926;BME280;55732;52.248;-0.844;2023-02-28T00:49:33;102528.16;;;4.82;85.72
62926;BME280;55732;52.248;-0.844;2023-02-28T00:51:59;102533.16;;;4.84;86.07
62926;BME280;55732;52.248;-0.844;2023-02-28T00:54:24;102536.73;;;4.89;86.12
62926;BME280;55732;52.248;-0.844;2023-02-28T00:56:50;102539.20;;;4.92;85.82
62926;BME280;55732;52.248;-0.844;2023-02-28T00:59:16;102534.61;;;4.94;85.77
62926;BME280;55732;52.248;-0.844;2023-02-28T01:01:43;102537.95;;;4.98;85.98
62926;BME280;55732;52.248;-0.844;2023-02-28T01:04:09;102537.13;;;5.02;85.73
62926;BME280;55732;52.248;-0.844;2023-02-28T01:06:35;102540.08;;;5.05;85.59
62926;BME280;55732;52.248;-0.844;2023-02-28T01:09:01;102541.40;;;5.07;85.54
62926;BME280;55732;52.248;-0.844;2023-02-28T01:11:27;102541.11;;;5.09;85.19
62926;BME280;55732;52.248;-0.844;2023-02-28T01:13:53;102540.45;;;5.06;85.22
62926;BME280;55732;52.248;-0.844;2023-02-28T01:16:18;102544.58;;;5.01;85.10
62926;BME280;55732;52.248;-0.844;2023-02-28T01:18:44;102544.40;;;4.98;85.16
62926;BME280;55732;52.248;-0.844;2023-02-28T01:21:14;102544.67;;;4.97;85.42
62926;BME280;55732;52.248;-0.844;2023-02-28T01:23:40;102542.83;;;4.98;85.48
62926;BME280;55732;52.248;-0.844;2023-02-28T01:26:18;102546.20;;;5.02;85.46
62926;BME280;55732;52.248;-0.844;2023-02-28T01:28:43;102551.86;;;5.07;85.43
62926;BME280;55732;52.248;-0.844;2023-02-28T01:31:09;102557.02;;;5.09;85.12
62926;BME280;55732;52.248;-0.844;2023-02-28T01:33:35;102552.67;;;5.06;85.11
62926;BME280;55732;52.248;-0.844;2023-02-28T01:36:07;102553.30;;;5.04;85.23
62926;BME280;55732;52.248;-0.844;2023-02-28T01:38:34;102558.63;;;5.03;85.09
62926;BME280;55732;52.248;-0.844;2023-02-28T01:41:00;102556.40;;;5.01;85.13
62926;BME280;55732;52.248;-0.844;2023-02-28T01:43:28;102556.83;;;4.99;85.19
62926;BME280;55732;52.248;-0.844;2023-02-28T01:45:56;102559.35;;;4.97;85.00
62926;BME280;55732;52.248;-0.844;2023-02-28T01:48:26;102564.13;;;4.95;84.98
62926;BME280;55732;52.248;-0.844;2023-02-28T01:50:55;102558.05;;;4.92;85.07
62926;BME280;55732;52.248;-0.844;2023-02-28T01:53:35;102559.39;;;4.91;85.17
62926;BME280;55732;52.248;-0.844;2023-02-28T01:56:06;102558.13;;;4.90;85.43
62926;BME280;55732;52.248;-0.844;2023-02-28T01:58:34;102555.94;;;4.92;85.48
62926;BME280;55732;52.248;-0.844;2023-02-28T02:01:00;102558.65;;;4.93;85.58
62926;BME280;55732;52.248;-0.844;2023-02-28T02:03:29;102556.27;;;4.95;85.37
62926;BME280;55732;52.248;-0.844;2023-02-28T02:05:56;102554.05;;;4.96;85.35
62926;BME280;55732;52.248;-0.844;2023-02-28T02:08:26;102552.02;;;4.97;85.35
62926;BME280;55732;52.248;-0.844;2023-02-28T02:10:59;102557.27;;;4.97;85.13
62926;BME280;55732;52.248;-0.844;2023-02-28T02:13:58;102563.11;;;4.96;85.29
62926;BME280;55732;52.248;-0.844;2023-02-28T02:22:20;102555.92;;;4.92;85.27
62926;BME280;55732;52.248;-0.844;2023-02-28T02:27:45;102554.66;;;4.91;85.99
62926;BME280;55732;52.248;-0.844;2023-02-28T02:35:34;102560.30;;;5.05;85.47
62926;BME280;55732;52.248;-0.844;2023-02-28T02:40:40;102551.42;;;5.05;85.46
62926;BME280;55732;52.248;-0.844;2023-02-28T02:43:33;102553.77;;;5.03;85.44
62926;BME280;55732;52.248;-0.844;2023-02-28T02:46:18;102550.46;;;5.01;85.40
62926;BME280;55732;52.248;-0.844;2023-02-28T02:48:46;102546.89;;;4.99;85.46
62926;BME280;55732;52.248;-0.844;2023-02-28T02:51:16;102541.53;;;4.97;85.52
62926;BME280;55732;52.248;-0.844;2023-02-28T02:53:47;102538.05;;;4.97;85.79
62926;BME280;55732;52.248;-0.844;2023-02-28T02:56:17;102536.63;;;5.00;85.93
62926;BME280;55732;52.248;-0.844;2023-02-28T02:58:44;102537.42;;;5.05;85.94
62926;BME280;55732;52.248;-0.844;2023-02-28T03:01:13;102534.00;;;5.10;85.84
62926;BME280;55732;52.248;-0.844;2023-02-28T03:03:39;102531.74;;;5.14;85.78
62926;BME280;55732;52.248;-0.844;2023-02-28T03:06:05;102525.79;;;5.13;85.83
62926;BME280;55732;52.248;-0.844;2023-02-28T03:08:36;102526.50;;;5.13;85.73
62926;BME280;55732;52.248;-0.844;2023-02-28T03:11:05;102530.07;;;5.15;85.75
62926;BME280;55732;52.248;-0.844;2023-02-28T03:16:13;102521.72;;;5.12;85.70
62926;BME280;55732;52.248;-0.844;2023-02-28T03:19:10;102521.88;;;5.12;85.73
62926;BME280;55732;52.248;-0.844;2023-02-28T03:21:52;102528.29;;;5.11;85.68
62926;BME280;55732;52.248;-0.844;2023-02-28T03:27:05;102538.73;;;5.14;85.96
62926;BME280;55732;52.248;-0.844;2023-02-28T03:29:35;102535.75;;;5.17;85.94
62926;BME280;55732;52.248;-0.844;2023-02-28T03:32:10;102533.45;;;5.19;85.91
62926;BME280;55732;52.248;-0.844;2023-02-28T03:34:48;102527.09;;;5.21;85.92
62926;BME280;55732;52.248;-0.844;2023-02-28T03:37:19;102527.63;;;5.22;85.62
62926;BME280;55732;52.248;-0.844;2023-02-28T03:40:01;102526.80;;;5.19;85.54
62926;BME280;55732;52.248;-0.844;2023-02-28T03:42:33;102528.41;;;5.17;85.47
62926;BME280;55732;52.248;-0.844;2023-02-28T03:45:04;102526.08;;;5.15;85.52
62926;BME280;55732;52.248;-0.844;2023-02-28T03:47:40;102519.36;;;5.14;85.60
62926;BME280;55732;52.248;-0.844;2023-02-28T03:50:16;102521.88;;;5.12;85.62
62926;BME280;55732;52.248;-0.844;2023-02-28T03:53:04;102519.66;;;5.13;85.70
62926;BME280;55732;52.248;-0.844;2023-02-28T03:55:39;102525.96;;;5.10;85.59
62926;BME280;55732;52.248;-0.844;2023-02-28T04:01:35;102526.17;;;5.00;85.67
62926;BME280;55732;52.248;-0.844;2023-02-28T04:04:02;102529.92;;;4.95;85.98
62926;BME280;55732;52.248;-0.844;2023-02-28T04:06:31;102532.64;;;4.90;86.10
62926;BME280;55732;52.248;-0.844;2023-02-28T04:08:57;102531.98;;;4.85;86.31
62926;BME280;55732;52.248;-0.844;2023-02-28T04:11:28;102533.28;;;4.80;86.44
62926;BME280;55732;52.248;-0.844;2023-02-28T04:13:55;102532.45;;;4.77;86.69
62926;BME280;55732;52.248;-0.844;2023-02-28T04:16:21;102525.56;;;4.79;86.83
62926;BME280;55732;52.248;-0.844;2023-02-28T04:18:46;102529.27;;;4.83;86.80
62926;BME280;55732;52.248;-0.844;2023-02-28T04:21:12;102531.08;;;4.84;86.73
62926;BME280;55732;52.248;-0.844;2023-02-28T04:23:37;102530.67;;;4.83;86.84
62926;BME280;55732;52.248;-0.844;2023-02-28T04:26:03;102530.34;;;4.80;86.93
62926;BME280;55732;52.248;-0.844;2023-02-28T04:28:29;102529.71;;;4.78;87.20
62926;BME280;55732;52.248;-0.844;2023-02-28T04:30:56;102531.88;;;4.79;87.31
62926;BME280;55732;52.248;-0.844;2023-02-28T04:33:22;102531.63;;;4.81;87.10
62926;BME280;55732;52.248;-0.844;2023-02-28T04:35:47;102538.19;;;4.83;87.32
62926;BME280;55732;52.248;-0.844;2023-02-28T04:38:13;102547.45;;;4.84;87.11
62926;BME280;55732;52.248;-0.844;2023-02-28T04:40:38;102545.38;;;4.84;87.08
62926;BME280;55732;52.248;-0.844;2023-02-28T04:43:03;102548.41;;;4.85;86.94
62926;BME280;55732;52.248;-0.844;2023-02-28T04:45:29;102548.76;;;4.85;86.85
62926;BME280;55732;52.248;-0.844;2023-02-28T04:47:57;102546.53;;;4.86;86.86
62926;BME280;55732;52.248;-0.844;2023-02-28T04:50:23;102550.45;;;4.87;86.76
62926;BME280;55732;52.248;-0.844;2023-02-28T04:52:49;102553.28;;;4.88;86.69
62926;BME280;55732;52.248;-0.844;2023-02-28T04:55:14;102552.92;;;4.88;86.48
62926;BME280;55732;52.248;-0.844;2023-02-28T04:57:40;102549.95;;;4.88;86.27
62926;BME280;55732;52.248;-0.844;2023-02-28T05:00:09;102549.42;;;4.88;86.22
62926;BME280;55732;52.248;-0.844;2023-02-28T05:02:37;102549.59;;;4.88;86.25
62926;BME280;55732;52.248;-0.844;2023-02-28T05:05:04;102550.52;;;4.89;86.34
62926;BME280;55732;52.248;-0.844;2023-02-28T05:07:29;102551.37;;;4.91;86.16
62926;BME280;55732;52.248;-0.844;2023-02-28T05:09:55;102549.58;;;4.94;85.88
62926;BME280;55732;52.248;-0.844;2023-02-28T05:12:20;102557.77;;;4.97;85.74
62926;BME280;55732;52.248;-0.844;2023-02-28T05:14:45;102554.73;;;4.96;85.37
62926;BME280;55732;52.248;-0.844;2023-02-28T05:17:11;102557.14;;;4.98;85.66
62926;BME280;55732;52.248;-0.844;2023-02-28T05:19:36;102552.69;;;5.00;85.31
62926;BME280;55732;52.248;-0.844;2023-02-28T05:22:02;102550.47;;;5.04;85.34
62926;BME280;55732;52.248;-0.844;2023-02-28T05:24:27;102554.94;;;5.06;85.28
62926;BME280;55732;52.248;-0.844;2023-02-28T05:26:54;102556.30;;;5.09;85.09
62926;BME280;55732;52.248;-0.844;2023-02-28T05:29:20;102558.29;;;5.10;84.96
62926;BME280;55732;52.248;-0.844;2023-02-28T05:31:46;102554.37;;;5.08;84.95
62926;BME280;55732;52.248;-0.844;2023-02-28T05:34:12;102555.32;;;5.06;85.03
62926;BME280;55732;52.248;-0.844;2023-02-28T05:36:38;102556.02;;;5.06;84.87
62926;BME280;55732;52.248;-0.844;2023-02-28T05:39:07;102562.02;;;5.08;84.97
62926;BME280;55732;52.248;-0.844;2023-02-28T05:41:39;102564.67;;;5.08;84.64
62926;BME280;55732;52.248;-0.844;2023-02-28T05:44:04;102560.91;;;5.10;84.74
62926;BME280;55732;52.248;-0.844;2023-02-28T05:46:30;102559.75;;;5.11;84.92
62926;BME280;55732;52.248;-0.844;2023-02-28T05:48:55;102563.05;;;5.11;84.95
62926;BME280;55732;52.248;-0.844;2023-02-28T05:51:23;102570.69;;;5.10;84.96
62926;BME280;55732;52.248;-0.844;2023-02-28T05:53:48;102568.99;;;5.11;85.23
62926;BME280;55732;52.248;-0.844;2023-02-28T05:56:14;102570.56;;;5.11;85.13
62926;BME280;55732;52.248;-0.844;2023-02-28T05:58:40;102572.36;;;5.09;85.35
62926;BME280;55732;52.248;-0.844;2023-02-28T06:01:33;102572.46;;;5.07;85.23
62926;BME280;55732;52.248;-0.844;2023-02-28T06:03:59;102571.34;;;5.02;85.23
62926;BME280;55732;52.248;-0.844;2023-02-28T06:06:26;102573.66;;;5.00;85.25
62926;BME280;55732;52.248;-0.844;2023-02-28T06:08:51;102578.10;;;4.98;85.14
62926;BME280;55732;52.248;-0.844;2023-02-28T06:11:17;102575.91;;;4.97;85.31
62926;BME280;55732;52.248;-0.844;2023-02-28T06:13:45;102580.16;;;4.98;85.28
62926;BME280;55732;52.248;-0.844;2023-02-28T06:16:11;102581.26;;;4.99;85.26
62926;BME280;55732;52.248;-0.844;2023-02-28T06:18:36;102582.14;;;4.99;85.07
62926;BME280;55732;52.248;-0.844;2023-02-28T06:21:02;102582.64;;;4.99;85.08
62926;BME280;55732;52.248;-0.844;2023-02-28T06:23:28;102586.63;;;4.98;84.84
62926;BME280;55732;52.248;-0.844;2023-02-28T06:25:53;102591.00;;;4.94;84.67
62926;BME280;55732;52.248;-0.844;2023-02-28T06:28:22;102587.00;;;4.92;84.65
62926;BME280;55732;52.248;-0.844;2023-02-28T06:30:48;102588.59;;;4.92;84.83
62926;BME280;55732;52.248;-0.844;2023-02-28T06:33:13;102592.55;;;4.94;84.77
62926;BME280;55732;52.248;-0.844;2023-02-28T06:35:39;102590.34;;;4.96;84.88
62926;BME280;55732;52.248;-0.844;2023-02-28T06:38:04;102586.39;;;4.97;85.11
62926;BME280;55732;52.248;-0.844;2023-02-28T06:40:30;102583.57;;;4.96;85.28
62926;BME280;55732;52.248;-0.844;2023-02-28T06:42:59;102581.80;;;4.95;85.33
62926;BME280;55732;52.248;-0.844;2023-02-28T06:45:24;102582.63;;;4.94;85.18
62926;BME280;55732;52.248;-0.844;2023-02-28T06:47:51;102583.40;;;4.93;84.95
62926;BME280;55732;52.248;-0.844;2023-02-28T06:50:18;102588.69;;;4.90;84.84
62926;BME280;55732;52.248;-0.844;2023-02-28T06:52:44;102591.91;;;4.89;84.90
62926;BME280;55732;52.248;-0.844;2023-02-28T06:55:10;102589.80;;;4.89;85.00
62926;BME280;55732;52.248;-0.844;2023-02-28T06:57:36;102587.48;;;4.91;85.04
62926;BME280;55732;52.248;-0.844;2023-02-28T07:00:06;102585.95;;;4.92;85.09
62926;BME280;55732;52.248;-0.844;2023-02-28T07:02:33;102591.38;;;4.92;85.14
62926;BME280;55732;52.248;-0.844;2023-02-28T07:04:58;102590.33;;;4.92;85.36
62926;BME280;55732;52.248;-0.844;2023-02-28T07:07:24;102590.16;;;4.92;85.39
62926;BME280;55732;52.248;-0.844;2023-02-28T07:09:49;102587.08;;;4.93;85.39
62926;BME280;55732;52.248;-0.844;2023-02-28T07:12:15;102593.44;;;4.94;85.53
62926;BME280;55732;52.248;-0.844;2023-02-28T07:14:40;102593.54;;;4.97;85.46
62926;BME280;55732;52.248;-0.844;2023-02-28T07:17:10;102596.23;;;4.98;85.43
62926;BME280;55732;52.248;-0.844;2023-02-28T07:19:38;102600.04;;;5.00;85.29
62926;BME280;55732;52.248;-0.844;2023-02-28T07:22:04;102601.58;;;5.03;85.34
62926;BME280;55732;52.248;-0.844;2023-02-28T07:24:30;102600.35;;;5.06;85.34
62926;BME280;55732;52.248;-0.844;2023-02-28T07:26:55;102599.64;;;5.09;85.46
62926;BME280;55732;52.248;-0.844;2023-02-28T07:29:21;102601.55;;;5.13;85.41
62926;BME280;55732;52.248;-0.844;2023-02-28T07:31:46;102604.59;;;5.14;85.51
62926;BME280;55732;52.248;-0.844;2023-02-28T07:34:13;102606.12;;;5.16;85.51
62926;BME280;55732;52.248;-0.844;2023-02-28T07:36:38;102604.05;;;5.20;85.74
62926;BME280;55732;52.248;-0.844;2023-02-28T07:39:04;102604.98;;;5.27;85.72
62926;BME280;55732;52.248;-0.844;2023-02-28T07:41:30;102603.71;;;5.34;85.37
62926;BME280;55732;52.248;-0.844;2023-02-28T07:43:58;102608.58;;;5.40;85.40
62926;BME280;55732;52.248;-0.844;2023-02-28T07:46:25;102610.31;;;5.43;85.27
62926;BME280;55732;52.248;-0.844;2023-02-28T07:48:51;102606.52;;;5.48;85.43
62926;BME280;55732;52.248;-0.844;2023-02-28T07:51:18;102604.89;;;5.53;85.44
62926;BME280;55732;52.248;-0.844;2023-02-28T07:53:44;102608.06;;;5.60;85.20
62926;BME280;55732;52.248;-0.844;2023-02-28T07:56:09;102606.77;;;5.65;85.25
62926;BME280;55732;52.248;-0.844;2023-02-28T07:58:36;102605.86;;;5.71;85.34
62926;BME280;55732;52.248;-0.844;2023-02-28T08:01:09;102603.05;;;5.82;85.43
62926;BME280;55732;52.248;-0.844;2023-02-28T08:03:36;102607.31;;;5.97;85.30
62926;BME280;55732;52.248;-0.844;2023-02-28T08:06:07;102602.42;;;6.14;85.11
62926;BME280;55732;52.248;-0.844;2023-02-28T08:08:33;102597.80;;;6.27;84.93
62926;BME280;55732;52.248;-0.844;2023-02-28T08:11:03;102603.05;;;6.34;84.78
62926;BME280;55732;52.248;-0.844;2023-02-28T08:13:29;102602.52;;;6.33;84.79
62926;BME280;55732;52.248;-0.844;2023-02-28T08:15:56;102602.85;;;6.33;84.83
62926;BME280;55732;52.248;-0.844;2023-02-28T08:18:22;102607.18;;;6.33;84.72
62926;BME280;55732;52.248;-0.844;2023-02-28T08:20:48;102608.09;;;6.30;84.83
62926;BME280;55732;52.248;-0.844;2023-02-28T08:23:14;102607.14;;;6.28;84.83
62926;BME280;55732;52.248;-0.844;2023-02-28T08:25:39;102604.27;;;6.30;85.19
62926;BME280;55732;52.248;-0.844;2023-02-28T08:28:05;102607.90;;;6.37;85.12
62926;BME280;55732;52.248;-0.844;2023-02-28T08:30:30;102605.78;;;6.51;84.93
62926;BME280;55732;52.248;-0.844;2023-02-28T08:32:56;102611.25;;;6.52;84.52
62926;BME280;55732;52.248;-0.844;2023-02-28T08:35:22;102607.42;;;6.41;84.71
62926;BME280;55732;52.248;-0.844;2023-02-28T08:37:48;102604.48;;;6.31;84.90
62926;BME280;55732;52.248;-0.844;2023-02-28T08:40:14;102602.69;;;6.27;85.15
62926;BME280;55732;52.248;-0.844;2023-02-28T08:42:50;102593.96;;;6.31;85.25
62926;BME280;55732;52.248;-0.844;2023-02-28T08:45:16;102589.91;;;6.48;85.10
62926;BME280;55732;52.248;-0.844;2023-02-28T08:47:41;102590.84;;;6.75;84.54
62926;BME280;55732;52.248;-0.844;2023-02-28T08:50:08;102592.48;;;6.99;84.07
62926;BME280;55732;52.248;-0.844;2023-02-28T08:52:33;102597.30;;;7.25;83.56
62926;BME280;55732;52.248;-0.844;2023-02-28T08:54:59;102596.30;;;7.34;82.68
62926;BME280;55732;52.248;-0.844;2023-02-28T08:57:24;102599.25;;;7.13;83.26
62926;BME280;55732;52.248;-0.844;2023-02-28T08:59:53;102597.94;;;6.93;83.73
62926;BME280;55732;52.248;-0.844;2023-02-28T09:02:18;102596.80;;;6.79;84.12
62926;BME280;55732;52.248;-0.844;2023-02-28T09:04:44;102594.73;;;6.72;84.32
62926;BME280;55732;52.248;-0.844;2023-02-28T09:07:13;102595.98;;;6.69;84.29
62926;BME280;55732;52.248;-0.844;2023-02-28T09:09:39;102597.75;;;6.66;84.37
62926;BME280;55732;52.248;-0.844;2023-02-28T09:12:28;102593.52;;;6.65;84.28
62926;BME280;55732;52.248;-0.844;2023-02-28T09:14:57;102590.20;;;6.65;84.31
62926;BME280;55732;52.248;-0.844;2023-02-28T09:17:23;102590.70;;;6.61;84.29
62926;BME280;55732;52.248;-0.844;2023-02-28T09:19:48;102589.45;;;6.53;84.24
62926;BME280;55732;52.248;-0.844;2023-02-28T09:22:14;102589.49;;;6.47;84.54
62926;BME280;55732;52.248;-0.844;2023-02-28T09:24:40;102591.01;;;6.45;84.84
62926;BME280;55732;52.248;-0.844;2023-02-28T09:27:05;102591.11;;;6.51;84.76
62926;BME280;55732;52.248;-0.844;2023-02-28T09:29:32;102593.90;;;6.70;84.47
62926;BME280;55732;52.248;-0.844;2023-02-28T09:31:58;102588.58;;;6.87;84.15
62926;BME280;55732;52.248;-0.844;2023-02-28T09:34:25;102586.30;;;7.02;83.82
62926;BME280;55732;52.248;-0.844;2023-02-28T09:36:50;102588.77;;;7.06;83.43
62926;BME280;55732;52.248;-0.844;2023-02-28T09:39:23;102589.48;;;7.06;83.38
62926;BME280;55732;52.248;-0.844;2023-02-28T09:41:51;102597.17;;;7.10;83.35
62926;BME280;55732;52.248;-0.844;2023-02-28T09:44:43;102595.08;;;7.10;82.91
62926;BME280;55732;52.248;-0.844;2023-02-28T09:47:26;102594.00;;;7.10;83.29
62926;BME280;55732;52.248;-0.844;2023-02-28T09:49:57;102593.05;;;7.12;83.13
62926;BME280;55732;52.248;-0.844;2023-02-28T09:52:29;102595.13;;;7.15;83.17
62926;BME280;55732;52.248;-0.844;2023-02-28T09:54:56;102601.00;;;7.17;82.70
62926;BME280;55732;52.248;-0.844;2023-02-28T09:57:32;102596.21;;;7.12;82.43
62926;BME280;55732;52.248;-0.844;2023-02-28T10:00:23;102595.16;;;7.12;82.55
62926;BME280;55732;52.248;-0.844;2023-02-28T10:08:19;102602.90;;;7.16;82.41
62926;BME280;55732;52.248;-0.844;2023-02-28T10:10:58;102605.86;;;7.16;82.40
62926;BME280;55732;52.248;-0.844;2023-02-28T10:13:43;102605.45;;;7.15;82.22
62926;BME280;55732;52.248;-0.844;2023-02-28T10:16:26;102605.56;;;7.10;82.01
62926;BME280;55732;52.248;-0.844;2023-02-28T10:18:59;102608.30;;;7.04;82.12
62926;BME280;55732;52.248;-0.844;2023-02-28T10:23:59;102603.88;;;7.07;82.53
62926;BME280;55732;52.248;-0.844;2023-02-28T10:26:28;102599.02;;;7.09;82.43
62926;BME280;55732;52.248;-0.844;2023-02-28T10:28:56;102599.67;;;7.15;82.43
62926;BME280;55732;52.248;-0.844;2023-02-28T10:31:21;102598.36;;;7.25;82.14
62926;BME280;55732;52.248;-0.844;2023-02-28T10:33:47;102599.30;;;7.30;81.83
62926;BME280;55732;52.248;-0.844;2023-02-28T10:36:18;102599.05;;;7.29;81.27
62926;BME280;55732;52.248;-0.844;2023-02-28T10:38:45;102594.42;;;7.23;81.12
62926;BME280;55732;52.248;-0.844;2023-02-28T10:41:14;102591.79;;;7.23;81.56
62926;BME280;55732;52.248;-0.844;2023-02-28T10:43:41;102587.23;;;7.42;81.71
62926;BME280;55732;52.248;-0.844;2023-02-28T10:51:09;102574.92;;;7.87;81.12
62926;BME280;55732;52.248;-0.844;2023-02-28T10:59:28;102577.80;;;7.72;80.89
62926;BME280;55732;52.248;-0.844;2023-02-28T11:01:48;102577.16;;;7.77;80.40
62926;BME280;55732;52.248;-0.844;2023-02-28T11:06:59;102572.86;;;7.96;79.87
62926;BME280;55732;52.248;-0.844;2023-02-28T11:11:58;102568.23;;;7.82;79.60
62926;BME280;55732;52.248;-0.844;2023-02-28T11:14:29;102567.41;;;7.75;79.41
62926;BME280;55732;52.248;-0.844;2023-02-28T11:16:59;102569.47;;;7.70;79.75
62926;BME280;55732;52.248;-0.844;2023-02-28T11:19:39;102566.29;;;7.61;79.89
62926;BME280;55732;52.248;-0.844;2023-02-28T11:22:05;102566.17;;;7.50;79.88
62926;BME280;55732;52.248;-0.844;2023-02-28T11:24:36;102564.66;;;7.40;79.98
62926;BME280;55732;52.248;-0.844;2023-02-28T11:27:03;102567.02;;;7.34;80.39
62926;BME280;55732;52.248;-0.844;2023-02-28T11:29:31;102566.98;;;7.33;80.46
62926;BME280;55732;52.248;-0.844;2023-02-28T11:34:35;102568.44;;;7.17;80.45
62926;BME280;55732;52.248;-0.844;2023-02-28T11:37:01;102566.76;;;7.12;80.53
62926;BME280;55732;52.248;-0.844;2023-02-28T11:39:31;102565.48;;;7.11;80.87
62926;BME280;55732;52.248;-0.844;2023-02-28T11:44:52;102563.27;;;7.20;80.74
62926;BME280;55732;52.248;-0.844;2023-02-28T12:01:18;102530.70;;;8.51;77.91
62926;BME280;55732;52.248;-0.844;2023-02-28T12:06:57;102522.11;;;8.30;76.63
62926;BME280;55732;52.248;-0.844;2023-02-28T12:12:48;102520.90;;;8.00;77.81
62926;BME280;55732;52.248;-0.844;2023-02-28T12:15:32;102521.23;;;7.86;78.05
62926;BME280;55732;52.248;-0.844;2023-02-28T12:20:49;102508.56;;;7.68;78.65
62926;BME280;55732;52.248;-0.844;2023-02-28T12:23:49;102506.07;;;7.68;78.91
62926;BME280;55732;52.248;-0.844;2023-02-28T12:32:05;102489.29;;;7.99;78.52
62926;BME280;55732;52.248;-0.844;2023-02-28T12:34:36;102480.85;;;8.12;78.25
62926;BME280;55732;52.248;-0.844;2023-02-28T12:37:10;102476.17;;;8.26;78.11
62926;BME280;55732;52.248;-0.844;2023-02-28T12:39:44;102473.55;;;8.44;77.61
62926;BME280;55732;52.248;-0.844;2023-02-28T12:42:19;102465.33;;;8.59;77.31
62926;BME280;55732;52.248;-0.844;2023-02-28T12:47:23;102462.55;;;8.84;76.49
62926;BME280;55732;52.248;-0.844;2023-02-28T12:57:40;102450.98;;;9.57;76.12
62926;BME280;55732;52.248;-0.844;2023-02-28T13:00:19;102442.21;;;9.84;75.97
62926;BME280;55732;52.248;-0.844;2023-02-28T13:05:49;102442.45;;;9.92;74.82
62926;BME280;55732;52.248;-0.844;2023-02-28T13:11:02;102434.61;;;9.67;74.62
62926;BME280;55732;52.248;-0.844;2023-02-28T13:13:29;102433.99;;;9.59;74.53
62926;BME280;55732;52.248;-0.844;2023-02-28T13:16:07;102430.52;;;9.54;74.66
62926;BME280;55732;52.248;-0.844;2023-02-28T13:21:01;102426.80;;;9.70;74.54
62926;BME280;55732;52.248;-0.844;2023-02-28T13:26:17;102430.77;;;9.78;73.77
62926;BME280;55732;52.248;-0.844;2023-02-28T13:31:20;102424.66;;;9.53;73.34
62926;BME280;55732;52.248;-0.844;2023-02-28T13:36:30;102421.23;;;9.34;73.78
62926;BME280;55732;52.248;-0.844;2023-02-28T13:38:57;102419.06;;;9.27;74.40
62926;BME280;55732;52.248;-0.844;2023-02-28T13:44:08;102414.76;;;9.09;75.55
62926;BME280;55732;52.248;-0.844;2023-02-28T13:46:36;102414.59;;;9.09;75.41
62926;BME280;55732;52.248;-0.844;2023-02-28T13:49:31;102415.10;;;9.09;75.31
62926;BME280;55732;52.248;-0.844;2023-02-28T14:05:20;102396.64;;;9.03;75.02
62926;BME280;55732;52.248;-0.844;2023-02-28T14:07:57;102392.91;;;9.12;75.06
62926;BME280;55732;52.248;-0.844;2023-02-28T14:10:33;102390.08;;;9.27;74.63
62926;BME280;55732;52.248;-0.844;2023-02-28T14:13:36;102385.48;;;9.43;74.30
62926;BME280;55732;52.248;-0.844;2023-02-28T14:16:00;102377.42;;;9.55;74.43
62926;BME280;55732;52.248;-0.844;2023-02-28T14:18:35;102378.84;;;9.55;74.49
62926;BME280;55732;52.248;-0.844;2023-02-28T14:21:21;102378.67;;;9.50;74.26
62926;BME280;55732;52.248;-0.844;2023-02-28T14:31:58;102376.70;;;9.16;74.65
62926;BME280;55732;52.248;-0.844;2023-02-28T14:34:43;102368.27;;;9.11;74.78
62926;BME280;55732;52.248;-0.844;2023-02-28T14:37:15;102367.05;;;9.06;74.75
62926;BME280;55732;52.248;-0.844;2023-02-28T14:39:43;102364.38;;;9.00;74.87
62926;BME280;55732;52.248;-0.844;2023-02-28T14:42:30;102365.50;;;9.02;75.01
62926;BME280;55732;52.248;-0.844;2023-02-28T14:44:57;102361.78;;;9.06;74.79
62926;BME280;55732;52.248;-0.844;2023-02-28T14:47:27;102361.89;;;9.15;74.76
62926;BME280;55732;52.248;-0.844;2023-02-28T14:49:53;102362.72;;;9.18;73.88
62926;BME280;55732;52.248;-0.844;2023-02-28T14:54:52;102363.58;;;9.13;73.66
62926;BME280;55732;52.248;-0.844;2023-02-28T14:57:27;102365.05;;;9.05;74.03
62926;BME280;55732;52.248;-0.844;2023-02-28T15:00:21;102358.33;;;8.93;74.22
62926;BME280;55732;52.248;-0.844;2023-02-28T15:02:43;102357.45;;;8.82;74.34
62926;BME280;55732;52.248;-0.844;2023-02-28T15:07:47;102354.77;;;8.81;74.20
62926;BME280;55732;52.248;-0.844;2023-02-28T15:10:20;102350.02;;;8.81;74.06
62926;BME280;55732;52.248;-0.844;2023-02-28T15:12:56;102350.00;;;8.80;73.73
62926;BME280;55732;52.248;-0.844;2023-02-28T15:17:56;102351.61;;;8.81;72.67
62926;BME280;55732;52.248;-0.844;2023-02-28T15:20:24;102343.79;;;8.78;72.75
62926;BME280;55732;52.248;-0.844;2023-02-28T15:22:54;102338.82;;;8.77;72.83